sensor_id;sensor_type;location;lat;lon;timestamp;pressure;altitude;pressure_sealevel;temperature
71081;BMP180;58740;50.672;18.690;2022-10-16T00:01:43;99125.00;;;14.32
71081;BMP180;58740;50.672;18.690;2022-10-16T00:04:12;99114.40;;;14.38
71081;BMP180;58740;50.672;18.690;2022-10-16T00:06:40;99116.20;;;14.40
71081;BMP180;58740;50.672;18.690;2022-10-16T00:09:07;99115.60;;;14.40
71081;BMP180;58740;50.672;18.690;2022-10-16T00:11:39;99112.00;;;14.40
71081;BMP180;58740;50.672;18.690;2022-10-16T00:14:13;99111.20;;;14.40
71081;BMP180;58740;50.672;18.690;2022-10-16T00:16:42;99115.00;;;14.40
71081;BMP180;58740;50.672;18.690;2022-10-16T00:19:11;99115.00;;;14.40
71081;BMP180;58740;50.672;18.690;2022-10-16T00:21:40;99111.00;;;14.40
71081;BMP180;58740;50.672;18.690;2022-10-16T00:24:10;99112.60;;;14.30
71081;BMP180;58740;50.672;18.690;2022-10-16T00:26:39;99116.60;;;14.30
71081;BMP180;58740;50.672;18.690;2022-10-16T00:29:07;99124.00;;;14.30
71081;BMP180;58740;50.672;18.690;2022-10-16T00:31:35;99116.80;;;14.30
71081;BMP180;58740;50.672;18.690;2022-10-16T00:34:03;99122.80;;;14.30
71081;BMP180;58740;50.672;18.690;2022-10-16T00:36:31;99118.80;;;14.30
71081;BMP180;58740;50.672;18.690;2022-10-16T00:38:59;99119.20;;;14.30
71081;BMP180;58740;50.672;18.690;2022-10-16T00:41:30;99117.60;;;14.30
71081;BMP180;58740;50.672;18.690;2022-10-16T00:44:02;99122.40;;;14.30
71081;BMP180;58740;50.672;18.690;2022-10-16T00:46:40;99122.40;;;14.30
71081;BMP180;58740;50.672;18.690;2022-10-16T00:49:11;99124.80;;;14.30
71081;BMP180;58740;50.672;18.690;2022-10-16T00:51:49;99123.40;;;14.30
71081;BMP180;58740;50.672;18.690;2022-10-16T00:54:26;99120.40;;;14.30
71081;BMP180;58740;50.672;18.690;2022-10-16T00:56:58;99121.80;;;14.30
71081;BMP180;58740;50.672;18.690;2022-10-16T01:02:00;99121.00;;;14.30
71081;BMP180;58740;50.672;18.690;2022-10-16T01:04:35;99117.00;;;14.24
71081;BMP180;58740;50.672;18.690;2022-10-16T01:07:30;99124.00;;;14.22
71081;BMP180;58740;50.672;18.690;2022-10-16T01:13:04;99122.80;;;14.20
71081;BMP180;58740;50.672;18.690;2022-10-16T01:15:37;99121.80;;;14.20
71081;BMP180;58740;50.672;18.690;2022-10-16T01:21:24;99125.20;;;14.20
71081;BMP180;58740;50.672;18.690;2022-10-16T01:24:08;99122.60;;;14.20
71081;BMP180;58740;50.672;18.690;2022-10-16T01:27:22;99122.40;;;14.10
71081;BMP180;58740;50.672;18.690;2022-10-16T01:30:06;99124.80;;;14.10
71081;BMP180;58740;50.672;18.690;2022-10-16T01:35:18;99130.00;;;14.20
71081;BMP180;58740;50.672;18.690;2022-10-16T01:38:09;99130.60;;;14.20
71081;BMP180;58740;50.672;18.690;2022-10-16T01:40:42;99135.40;;;14.20
71081;BMP180;58740;50.672;18.690;2022-10-16T01:43:21;99129.40;;;14.20
71081;BMP180;58740;50.672;18.690;2022-10-16T01:45:51;99137.00;;;14.20
71081;BMP180;58740;50.672;18.690;2022-10-16T01:48:21;99134.20;;;14.20
71081;BMP180;58740;50.672;18.690;2022-10-16T01:51:20;99135.20;;;14.26
71081;BMP180;58740;50.672;18.690;2022-10-16T01:53:53;99142.00;;;14.30
71081;BMP180;58740;50.672;18.690;2022-10-16T01:56:23;99139.00;;;14.30
71081;BMP180;58740;50.672;18.690;2022-10-16T01:59:15;99144.40;;;14.28
71081;BMP180;58740;50.672;18.690;2022-10-16T02:01:50;99144.00;;;14.20
71081;BMP180;58740;50.672;18.690;2022-10-16T02:04:57;99142.60;;;14.20
71081;BMP180;58740;50.672;18.690;2022-10-16T02:07:25;99141.20;;;14.20
71081;BMP180;58740;50.672;18.690;2022-10-16T02:09:54;99136.80;;;14.20
71081;BMP180;58740;50.672;18.690;2022-10-16T02:12:33;99138.80;;;14.20
71081;BMP180;58740;50.672;18.690;2022-10-16T02:15:03;99145.40;;;14.20
71081;BMP180;58740;50.672;18.690;2022-10-16T02:17:31;99145.00;;;14.20
71081;BMP180;58740;50.672;18.690;2022-10-16T02:19:59;99140.60;;;14.20
71081;BMP180;58740;50.672;18.690;2022-10-16T02:22:38;99142.20;;;14.20
71081;BMP180;58740;50.672;18.690;2022-10-16T02:25:30;99145.20;;;14.20
71081;BMP180;58740;50.672;18.690;2022-10-16T02:28:24;99139.80;;;14.20
71081;BMP180;58740;50.672;18.690;2022-10-16T02:31:03;99134.60;;;14.20
71081;BMP180;58740;50.672;18.690;2022-10-16T02:33:34;99136.20;;;14.20
71081;BMP180;58740;50.672;18.690;2022-10-16T02:36:04;99140.20;;;14.20
71081;BMP180;58740;50.672;18.690;2022-10-16T02:38:32;99141.80;;;14.12
71081;BMP180;58740;50.672;18.690;2022-10-16T02:41:00;99141.00;;;14.12
71081;BMP180;58740;50.672;18.690;2022-10-16T02:43:28;99143.80;;;14.18
71081;BMP180;58740;50.672;18.690;2022-10-16T02:45:56;99151.20;;;14.20
71081;BMP180;58740;50.672;18.690;2022-10-16T02:48:23;99150.20;;;14.20
71081;BMP180;58740;50.672;18.690;2022-10-16T02:50:51;99154.40;;;14.30
71081;BMP180;58740;50.672;18.690;2022-10-16T02:53:19;99157.60;;;14.30
71081;BMP180;58740;50.672;18.690;2022-10-16T02:55:47;99156.00;;;14.30
71081;BMP180;58740;50.672;18.690;2022-10-16T02:58:15;99157.20;;;14.30
71081;BMP180;58740;50.672;18.690;2022-10-16T03:00:43;99160.00;;;14.30
71081;BMP180;58740;50.672;18.690;2022-10-16T03:03:10;99159.60;;;14.30
71081;BMP180;58740;50.672;18.690;2022-10-16T03:05:38;99163.60;;;14.30
71081;BMP180;58740;50.672;18.690;2022-10-16T03:08:05;99165.00;;;14.30
71081;BMP180;58740;50.672;18.690;2022-10-16T03:10:33;99161.40;;;14.30
71081;BMP180;58740;50.672;18.690;2022-10-16T03:13:00;99163.40;;;14.30
71081;BMP180;58740;50.672;18.690;2022-10-16T03:15:28;99168.00;;;14.30
71081;BMP180;58740;50.672;18.690;2022-10-16T03:18:00;99173.00;;;14.30
71081;BMP180;58740;50.672;18.690;2022-10-16T03:20:27;99169.60;;;14.40
71081;BMP180;58740;50.672;18.690;2022-10-16T03:22:55;99172.00;;;14.40
71081;BMP180;58740;50.672;18.690;2022-10-16T03:25:23;99173.00;;;14.40
71081;BMP180;58740;50.672;18.690;2022-10-16T03:27:50;99169.40;;;14.40
71081;BMP180;58740;50.672;18.690;2022-10-16T03:30:18;99171.80;;;14.40
71081;BMP180;58740;50.672;18.690;2022-10-16T03:32:46;99167.00;;;14.40
71081;BMP180;58740;50.672;18.690;2022-10-16T03:35:13;99172.00;;;14.46
71081;BMP180;58740;50.672;18.690;2022-10-16T03:37:41;99176.20;;;14.50
71081;BMP180;58740;50.672;18.690;2022-10-16T03:40:09;99180.80;;;14.50
71081;BMP180;58740;50.672;18.690;2022-10-16T03:42:37;99187.60;;;14.50
71081;BMP180;58740;50.672;18.690;2022-10-16T03:45:05;99185.80;;;14.50
71081;BMP180;58740;50.672;18.690;2022-10-16T03:47:33;99180.20;;;14.50
71081;BMP180;58740;50.672;18.690;2022-10-16T03:50:01;99178.80;;;14.50
71081;BMP180;58740;50.672;18.690;2022-10-16T03:52:30;99182.60;;;14.50
71081;BMP180;58740;50.672;18.690;2022-10-16T03:54:57;99179.20;;;14.50
71081;BMP180;58740;50.672;18.690;2022-10-16T03:57:25;99180.80;;;14.50
71081;BMP180;58740;50.672;18.690;2022-10-16T03:59:53;99184.40;;;14.50
71081;BMP180;58740;50.672;18.690;2022-10-16T04:02:21;99178.00;;;14.50
71081;BMP180;58740;50.672;18.690;2022-10-16T04:04:49;99183.20;;;14.50
71081;BMP180;58740;50.672;18.690;2022-10-16T04:07:16;99179.40;;;14.50
71081;BMP180;58740;50.672;18.690;2022-10-16T04:09:44;99181.00;;;14.50
71081;BMP180;58740;50.672;18.690;2022-10-16T04:12:11;99182.20;;;14.50
71081;BMP180;58740;50.672;18.690;2022-10-16T04:14:39;99183.40;;;14.60
71081;BMP180;58740;50.672;18.690;2022-10-16T04:17:07;99186.60;;;14.60
71081;BMP180;58740;50.672;18.690;2022-10-16T04:19:34;99191.20;;;14.60
71081;BMP180;58740;50.672;18.690;2022-10-16T04:22:02;99189.20;;;14.60
71081;BMP180;58740;50.672;18.690;2022-10-16T04:24:30;99187.60;;;14.62
71081;BMP180;58740;50.672;18.690;2022-10-16T04:26:57;99191.80;;;14.62
71081;BMP180;58740;50.672;18.690;2022-10-16T04:29:25;99190.20;;;14.62
71081;BMP180;58740;50.672;18.690;2022-10-16T04:31:52;99180.00;;;14.60
71081;BMP180;58740;50.672;18.690;2022-10-16T04:34:21;99183.80;;;14.60
71081;BMP180;58740;50.672;18.690;2022-10-16T04:36:48;99179.40;;;14.60
71081;BMP180;58740;50.672;18.690;2022-10-16T04:39:19;99183.60;;;14.60
71081;BMP180;58740;50.672;18.690;2022-10-16T04:41:46;99183.40;;;14.60
71081;BMP180;58740;50.672;18.690;2022-10-16T04:44:14;99184.40;;;14.50
71081;BMP180;58740;50.672;18.690;2022-10-16T04:46:42;99188.60;;;14.50
71081;BMP180;58740;50.672;18.690;2022-10-16T04:49:10;99184.00;;;14.50
71081;BMP180;58740;50.672;18.690;2022-10-16T04:51:37;99181.80;;;14.50
71081;BMP180;58740;50.672;18.690;2022-10-16T04:54:05;99184.40;;;14.50
71081;BMP180;58740;50.672;18.690;2022-10-16T04:56:32;99188.80;;;14.50
71081;BMP180;58740;50.672;18.690;2022-10-16T04:59:07;99190.40;;;14.50
71081;BMP180;58740;50.672;18.690;2022-10-16T05:01:34;99195.00;;;14.50
71081;BMP180;58740;50.672;18.690;2022-10-16T05:04:02;99198.80;;;14.46
71081;BMP180;58740;50.672;18.690;2022-10-16T05:06:30;99199.60;;;14.46
71081;BMP180;58740;50.672;18.690;2022-10-16T05:08:58;99206.20;;;14.50
71081;BMP180;58740;50.672;18.690;2022-10-16T05:11:25;99208.20;;;14.50
71081;BMP180;58740;50.672;18.690;2022-10-16T05:13:53;99211.20;;;14.50
71081;BMP180;58740;50.672;18.690;2022-10-16T05:16:22;99214.80;;;14.50
71081;BMP180;58740;50.672;18.690;2022-10-16T05:18:52;99210.40;;;14.50
71081;BMP180;58740;50.672;18.690;2022-10-16T05:21:30;99206.00;;;14.50
71081;BMP180;58740;50.672;18.690;2022-10-16T05:23:58;99205.80;;;14.50
71081;BMP180;58740;50.672;18.690;2022-10-16T05:26:25;99210.80;;;14.50
71081;BMP180;58740;50.672;18.690;2022-10-16T05:28:53;99213.80;;;14.58
71081;BMP180;58740;50.672;18.690;2022-10-16T05:31:21;99217.00;;;14.60
71081;BMP180;58740;50.672;18.690;2022-10-16T05:33:48;99211.60;;;14.60
71081;BMP180;58740;50.672;18.690;2022-10-16T05:36:21;99218.20;;;14.60
71081;BMP180;58740;50.672;18.690;2022-10-16T05:38:51;99213.60;;;14.60
71081;BMP180;58740;50.672;18.690;2022-10-16T05:41:19;99214.00;;;14.60
71081;BMP180;58740;50.672;18.690;2022-10-16T05:43:48;99224.00;;;14.60
71081;BMP180;58740;50.672;18.690;2022-10-16T05:46:17;99231.20;;;14.68
71081;BMP180;58740;50.672;18.690;2022-10-16T05:48:45;99235.80;;;14.70
71081;BMP180;58740;50.672;18.690;2022-10-16T05:51:14;99239.60;;;14.70
71081;BMP180;58740;50.672;18.690;2022-10-16T05:53:42;99243.20;;;14.70
71081;BMP180;58740;50.672;18.690;2022-10-16T05:56:15;99248.80;;;14.70
71081;BMP180;58740;50.672;18.690;2022-10-16T05:58:44;99246.20;;;14.72
71081;BMP180;58740;50.672;18.690;2022-10-16T06:01:18;99244.20;;;14.76
71081;BMP180;58740;50.672;18.690;2022-10-16T06:03:46;99246.20;;;14.80
71081;BMP180;58740;50.672;18.690;2022-10-16T06:06:24;99247.00;;;14.80
71081;BMP180;58740;50.672;18.690;2022-10-16T06:08:55;99255.60;;;14.80
71081;BMP180;58740;50.672;18.690;2022-10-16T06:11:28;99258.00;;;14.80
71081;BMP180;58740;50.672;18.690;2022-10-16T06:13:59;99260.80;;;14.80
71081;BMP180;58740;50.672;18.690;2022-10-16T06:16:29;99263.40;;;14.80
71081;BMP180;58740;50.672;18.690;2022-10-16T06:18:57;99259.20;;;14.84
71081;BMP180;58740;50.672;18.690;2022-10-16T06:21:28;99263.40;;;14.90
71081;BMP180;58740;50.672;18.690;2022-10-16T06:23:57;99259.20;;;14.90
71081;BMP180;58740;50.672;18.690;2022-10-16T06:26:28;99266.80;;;14.90
71081;BMP180;58740;50.672;18.690;2022-10-16T06:28:58;99271.20;;;14.90
71081;BMP180;58740;50.672;18.690;2022-10-16T06:31:28;99264.00;;;14.90
71081;BMP180;58740;50.672;18.690;2022-10-16T06:33:58;99274.20;;;14.96
71081;BMP180;58740;50.672;18.690;2022-10-16T06:36:27;99269.60;;;14.98
71081;BMP180;58740;50.672;18.690;2022-10-16T06:38:55;99277.00;;;15.00
71081;BMP180;58740;50.672;18.690;2022-10-16T06:41:23;99277.60;;;15.00
71081;BMP180;58740;50.672;18.690;2022-10-16T06:43:50;99274.20;;;15.00
71081;BMP180;58740;50.672;18.690;2022-10-16T06:46:23;99277.20;;;15.10
71081;BMP180;58740;50.672;18.690;2022-10-16T06:48:52;99278.20;;;15.10
71081;BMP180;58740;50.672;18.690;2022-10-16T06:51:22;99279.40;;;15.10
71081;BMP180;58740;50.672;18.690;2022-10-16T06:53:54;99282.80;;;15.10
71081;BMP180;58740;50.672;18.690;2022-10-16T06:56:32;99286.80;;;15.10
71081;BMP180;58740;50.672;18.690;2022-10-16T06:59:01;99287.00;;;15.20
71081;BMP180;58740;50.672;18.690;2022-10-16T07:01:29;99289.60;;;15.20
71081;BMP180;58740;50.672;18.690;2022-10-16T07:03:57;99296.00;;;15.20
71081;BMP180;58740;50.672;18.690;2022-10-16T07:06:26;99293.00;;;15.30
71081;BMP180;58740;50.672;18.690;2022-10-16T07:08:54;99304.20;;;15.30
71081;BMP180;58740;50.672;18.690;2022-10-16T07:11:23;99303.80;;;15.30
71081;BMP180;58740;50.672;18.690;2022-10-16T07:13:52;99308.20;;;15.40
71081;BMP180;58740;50.672;18.690;2022-10-16T07:16:27;99312.00;;;15.40
71081;BMP180;58740;50.672;18.690;2022-10-16T07:19:00;99309.20;;;15.46
71081;BMP180;58740;50.672;18.690;2022-10-16T07:21:32;99308.20;;;15.50
71081;BMP180;58740;50.672;18.690;2022-10-16T07:24:06;99310.60;;;15.50
71081;BMP180;58740;50.672;18.690;2022-10-16T07:26:36;99318.40;;;15.50
71081;BMP180;58740;50.672;18.690;2022-10-16T07:29:12;99321.40;;;15.56
71081;BMP180;58740;50.672;18.690;2022-10-16T07:31:42;99325.20;;;15.60
71081;BMP180;58740;50.672;18.690;2022-10-16T07:34:15;99328.20;;;15.60
71081;BMP180;58740;50.672;18.690;2022-10-16T07:36:43;99323.40;;;15.60
71081;BMP180;58740;50.672;18.690;2022-10-16T07:39:11;99328.00;;;15.70
71081;BMP180;58740;50.672;18.690;2022-10-16T07:41:38;99330.60;;;15.78
71081;BMP180;58740;50.672;18.690;2022-10-16T07:44:06;99322.00;;;15.80
71081;BMP180;58740;50.672;18.690;2022-10-16T07:46:35;99322.60;;;15.90
71081;BMP180;58740;50.672;18.690;2022-10-16T07:49:03;99323.20;;;15.90
71081;BMP180;58740;50.672;18.690;2022-10-16T07:51:32;99330.80;;;16.00
71081;BMP180;58740;50.672;18.690;2022-10-16T07:54:00;99325.20;;;16.00
71081;BMP180;58740;50.672;18.690;2022-10-16T07:56:31;99332.40;;;16.10
71081;BMP180;58740;50.672;18.690;2022-10-16T07:58:59;99335.60;;;16.12
71081;BMP180;58740;50.672;18.690;2022-10-16T08:01:27;99341.80;;;16.20
71081;BMP180;58740;50.672;18.690;2022-10-16T08:03:55;99345.60;;;16.20
71081;BMP180;58740;50.672;18.690;2022-10-16T08:06:23;99352.80;;;16.20
71081;BMP180;58740;50.672;18.690;2022-10-16T08:08:56;99349.40;;;16.30
71081;BMP180;58740;50.672;18.690;2022-10-16T08:11:23;99350.00;;;16.30
71081;BMP180;58740;50.672;18.690;2022-10-16T08:13:51;99348.40;;;16.30
71081;BMP180;58740;50.672;18.690;2022-10-16T08:16:19;99350.40;;;16.32
71081;BMP180;58740;50.672;18.690;2022-10-16T08:18:48;99354.20;;;16.30
71081;BMP180;58740;50.672;18.690;2022-10-16T08:21:20;99352.00;;;16.30
71081;BMP180;58740;50.672;18.690;2022-10-16T08:23:50;99351.20;;;16.30
71081;BMP180;58740;50.672;18.690;2022-10-16T08:26:26;99361.00;;;16.30
71081;BMP180;58740;50.672;18.690;2022-10-16T08:28:55;99365.60;;;16.30
71081;BMP180;58740;50.672;18.690;2022-10-16T08:31:24;99369.80;;;16.30
71081;BMP180;58740;50.672;18.690;2022-10-16T08:33:52;99371.60;;;16.30
71081;BMP180;58740;50.672;18.690;2022-10-16T08:36:20;99369.80;;;16.30
71081;BMP180;58740;50.672;18.690;2022-10-16T08:38:49;99368.20;;;16.28
71081;BMP180;58740;50.672;18.690;2022-10-16T08:42:31;99372.80;;;16.22
71081;BMP180;58740;50.672;18.690;2022-10-16T08:50:29;99381.40;;;16.20
71081;BMP180;58740;50.672;18.690;2022-10-16T08:52:58;99389.20;;;16.20
71081;BMP180;58740;50.672;18.690;2022-10-16T08:55:53;99387.60;;;16.20
71081;BMP180;58740;50.672;18.690;2022-10-16T08:58:30;99389.80;;;16.20
71081;BMP180;58740;50.672;18.690;2022-10-16T09:01:20;99385.20;;;16.18
71081;BMP180;58740;50.672;18.690;2022-10-16T09:06:54;99376.00;;;16.20
71081;BMP180;58740;50.672;18.690;2022-10-16T09:12:16;99380.20;;;16.20
71081;BMP180;58740;50.672;18.690;2022-10-16T09:15:02;99379.60;;;16.20
71081;BMP180;58740;50.672;18.690;2022-10-16T09:17:52;99381.80;;;16.30
71081;BMP180;58740;50.672;18.690;2022-10-16T09:20:51;99377.60;;;16.30
71081;BMP180;58740;50.672;18.690;2022-10-16T09:23:30;99379.60;;;16.40
71081;BMP180;58740;50.672;18.690;2022-10-16T09:25:59;99376.20;;;16.46
71081;BMP180;58740;50.672;18.690;2022-10-16T09:28:26;99377.60;;;16.50
71081;BMP180;58740;50.672;18.690;2022-10-16T09:30:54;99379.00;;;16.60
71081;BMP180;58740;50.672;18.690;2022-10-16T09:33:28;99382.80;;;16.70
71081;BMP180;58740;50.672;18.690;2022-10-16T09:35:58;99384.80;;;16.70
71081;BMP180;58740;50.672;18.690;2022-10-16T09:38:33;99385.20;;;16.80
71081;BMP180;58740;50.672;18.690;2022-10-16T09:41:19;99396.60;;;16.90
71081;BMP180;58740;50.672;18.690;2022-10-16T09:43:57;99399.40;;;16.90
71081;BMP180;58740;50.672;18.690;2022-10-16T09:46:34;99395.60;;;17.00
71081;BMP180;58740;50.672;18.690;2022-10-16T09:49:21;99395.20;;;17.00
71081;BMP180;58740;50.672;18.690;2022-10-16T09:51:50;99395.40;;;17.10
71081;BMP180;58740;50.672;18.690;2022-10-16T09:54:20;99398.60;;;17.10
71081;BMP180;58740;50.672;18.690;2022-10-16T09:56:49;99392.60;;;17.18
71081;BMP180;58740;50.672;18.690;2022-10-16T09:59:22;99393.60;;;17.20
71081;BMP180;58740;50.672;18.690;2022-10-16T10:01:55;99395.20;;;17.20
71081;BMP180;58740;50.672;18.690;2022-10-16T10:04:24;99391.20;;;17.30
71081;BMP180;58740;50.672;18.690;2022-10-16T10:06:55;99387.80;;;17.30
71081;BMP180;58740;50.672;18.690;2022-10-16T10:09:28;99391.00;;;17.30
71081;BMP180;58740;50.672;18.690;2022-10-16T10:12:00;99387.00;;;17.40
71081;BMP180;58740;50.672;18.690;2022-10-16T10:14:56;99378.00;;;17.40
71081;BMP180;58740;50.672;18.690;2022-10-16T10:17:27;99381.80;;;17.40
71081;BMP180;58740;50.672;18.690;2022-10-16T10:20:33;99388.20;;;17.46
71081;BMP180;58740;50.672;18.690;2022-10-16T10:22:54;99397.80;;;17.50
71081;BMP180;58740;50.672;18.690;2022-10-16T10:26:15;99392.40;;;17.50
71081;BMP180;58740;50.672;18.690;2022-10-16T10:32:06;99392.20;;;17.50
71081;BMP180;58740;50.672;18.690;2022-10-16T10:35:15;99395.80;;;17.60
71081;BMP180;58740;50.672;18.690;2022-10-16T10:37:59;99394.40;;;17.70
71081;BMP180;58740;50.672;18.690;2022-10-16T10:40:43;99397.80;;;17.70
71081;BMP180;58740;50.672;18.690;2022-10-16T10:46:45;99401.00;;;17.70
71081;BMP180;58740;50.672;18.690;2022-10-16T10:55:37;99407.20;;;17.90
71081;BMP180;58740;50.672;18.690;2022-10-16T11:01:09;99407.40;;;18.00
71081;BMP180;58740;50.672;18.690;2022-10-16T11:07:01;99405.60;;;17.96
71081;BMP180;58740;50.672;18.690;2022-10-16T11:09:51;99402.60;;;17.90
71081;BMP180;58740;50.672;18.690;2022-10-16T11:12:26;99407.40;;;17.90
71081;BMP180;58740;50.672;18.690;2022-10-16T11:15:18;99409.60;;;17.90
71081;BMP180;58740;50.672;18.690;2022-10-16T11:21:05;99400.80;;;18.00
71081;BMP180;58740;50.672;18.690;2022-10-16T11:24:21;99398.20;;;18.00
71081;BMP180;58740;50.672;18.690;2022-10-16T11:26:53;99399.60;;;18.06
71081;BMP180;58740;50.672;18.690;2022-10-16T11:29:31;99394.80;;;18.10
71081;BMP180;58740;50.672;18.690;2022-10-16T11:32:10;99400.60;;;18.10
71081;BMP180;58740;50.672;18.690;2022-10-16T11:34:50;99406.80;;;18.10
71081;BMP180;58740;50.672;18.690;2022-10-16T11:37:27;99402.80;;;18.16
71081;BMP180;58740;50.672;18.690;2022-10-16T11:40:22;99398.60;;;18.20
71081;BMP180;58740;50.672;18.690;2022-10-16T11:43:04;99393.80;;;18.30
71081;BMP180;58740;50.672;18.690;2022-10-16T11:45:42;99399.80;;;18.30
71081;BMP180;58740;50.672;18.690;2022-10-16T11:48:32;99407.20;;;18.40
71081;BMP180;58740;50.672;18.690;2022-10-16T11:51:14;99405.00;;;18.40
71081;BMP180;58740;50.672;18.690;2022-10-16T11:54:14;99414.20;;;18.40
71081;BMP180;58740;50.672;18.690;2022-10-16T11:56:49;99414.60;;;18.40
71081;BMP180;58740;50.672;18.690;2022-10-16T11:59:38;99415.20;;;18.40
71081;BMP180;58740;50.672;18.690;2022-10-16T12:02:38;99409.20;;;18.40
71081;BMP180;58740;50.672;18.690;2022-10-16T12:05:25;99413.40;;;18.40
71081;BMP180;58740;50.672;18.690;2022-10-16T12:08:10;99416.40;;;18.50
71081;BMP180;58740;50.672;18.690;2022-10-16T12:10:41;99407.80;;;18.50
71081;BMP180;58740;50.672;18.690;2022-10-16T12:18:45;99410.20;;;18.56
71081;BMP180;58740;50.672;18.690;2022-10-16T12:21:16;99407.00;;;18.58
71081;BMP180;58740;50.672;18.690;2022-10-16T12:23:53;99407.80;;;18.60
71081;BMP180;58740;50.672;18.690;2022-10-16T12:26:31;99401.00;;;18.60
71081;BMP180;58740;50.672;18.690;2022-10-16T12:29:22;99395.00;;;18.66
71081;BMP180;58740;50.672;18.690;2022-10-16T12:31:51;99396.40;;;18.70
71081;BMP180;58740;50.672;18.690;2022-10-16T12:34:38;99400.60;;;18.70
71081;BMP180;58740;50.672;18.690;2022-10-16T12:39:40;99394.80;;;18.72
71081;BMP180;58740;50.672;18.690;2022-10-16T12:42:38;99402.40;;;18.72
71081;BMP180;58740;50.672;18.690;2022-10-16T12:45:31;99402.40;;;18.80
71081;BMP180;58740;50.672;18.690;2022-10-16T12:48:02;99392.20;;;18.90
71081;BMP180;58740;50.672;18.690;2022-10-16T12:50:36;99395.80;;;18.90
71081;BMP180;58740;50.672;18.690;2022-10-16T12:53:21;99393.40;;;19.00
71081;BMP180;58740;50.672;18.690;2022-10-16T12:59:10;99392.00;;;19.10
71081;BMP180;58740;50.672;18.690;2022-10-16T13:05:19;99404.00;;;19.20
71081;BMP180;58740;50.672;18.690;2022-10-16T13:10:54;99412.80;;;19.40
71081;BMP180;58740;50.672;18.690;2022-10-16T13:13:47;99410.00;;;19.40
71081;BMP180;58740;50.672;18.690;2022-10-16T13:16:30;99409.40;;;19.40
71081;BMP180;58740;50.672;18.690;2022-10-16T13:19:12;99410.40;;;19.40
71081;BMP180;58740;50.672;18.690;2022-10-16T13:28:00;99408.20;;;19.30
71081;BMP180;58740;50.672;18.690;2022-10-16T13:30:33;99410.40;;;19.20
71081;BMP180;58740;50.672;18.690;2022-10-16T13:33:07;99413.20;;;19.20
71081;BMP180;58740;50.672;18.690;2022-10-16T13:35:50;99409.20;;;19.20
71081;BMP180;58740;50.672;18.690;2022-10-16T13:38:22;99414.60;;;19.20
71081;BMP180;58740;50.672;18.690;2022-10-16T13:41:02;99416.80;;;19.20
71081;BMP180;58740;50.672;18.690;2022-10-16T13:43:38;99421.80;;;19.20
71081;BMP180;58740;50.672;18.690;2022-10-16T13:46:18;99423.80;;;19.18
71081;BMP180;58740;50.672;18.690;2022-10-16T13:49:10;99429.20;;;19.10
71081;BMP180;58740;50.672;18.690;2022-10-16T13:51:39;99422.60;;;19.10
71081;BMP180;58740;50.672;18.690;2022-10-16T13:54:10;99430.40;;;19.10
71081;BMP180;58740;50.672;18.690;2022-10-16T13:56:39;99430.60;;;19.10
71081;BMP180;58740;50.672;18.690;2022-10-16T13:59:25;99433.80;;;19.10
71081;BMP180;58740;50.672;18.690;2022-10-16T14:01:57;99447.20;;;19.10
71081;BMP180;58740;50.672;18.690;2022-10-16T14:04:31;99450.00;;;19.10
71081;BMP180;58740;50.672;18.690;2022-10-16T14:06:59;99451.00;;;19.10
71081;BMP180;58740;50.672;18.690;2022-10-16T14:09:30;99444.80;;;19.10
71081;BMP180;58740;50.672;18.690;2022-10-16T14:12:02;99453.40;;;19.08
71081;BMP180;58740;50.672;18.690;2022-10-16T14:14:52;99457.00;;;19.00
71081;BMP180;58740;50.672;18.690;2022-10-16T14:17:31;99451.60;;;19.00
71081;BMP180;58740;50.672;18.690;2022-10-16T14:20:04;99454.60;;;19.00
71081;BMP180;58740;50.672;18.690;2022-10-16T14:22:41;99457.00;;;18.92
71081;BMP180;58740;50.672;18.690;2022-10-16T14:28:03;99460.00;;;18.90
71081;BMP180;58740;50.672;18.690;2022-10-16T14:30:35;99453.00;;;18.80
71081;BMP180;58740;50.672;18.690;2022-10-16T14:33:20;99450.60;;;18.80
71081;BMP180;58740;50.672;18.690;2022-10-16T14:36:02;99452.00;;;18.72
71081;BMP180;58740;50.672;18.690;2022-10-16T14:38:31;99451.20;;;18.70
71081;BMP180;58740;50.672;18.690;2022-10-16T14:41:00;99456.40;;;18.70
71081;BMP180;58740;50.672;18.690;2022-10-16T14:43:41;99465.40;;;18.70
71081;BMP180;58740;50.672;18.690;2022-10-16T14:46:14;99468.00;;;18.70
71081;BMP180;58740;50.672;18.690;2022-10-16T14:48:50;99467.40;;;18.70
71081;BMP180;58740;50.672;18.690;2022-10-16T14:51:19;99466.20;;;18.60
71081;BMP180;58740;50.672;18.690;2022-10-16T14:53:47;99466.80;;;18.60
71081;BMP180;58740;50.672;18.690;2022-10-16T14:56:19;99473.40;;;18.60
71081;BMP180;58740;50.672;18.690;2022-10-16T14:58:50;99482.20;;;18.60
71081;BMP180;58740;50.672;18.690;2022-10-16T15:01:19;99482.80;;;18.60
71081;BMP180;58740;50.672;18.690;2022-10-16T15:03:47;99480.00;;;18.58
71081;BMP180;58740;50.672;18.690;2022-10-16T15:06:16;99473.60;;;18.50
71081;BMP180;58740;50.672;18.690;2022-10-16T15:08:44;99480.40;;;18.52
71081;BMP180;58740;50.672;18.690;2022-10-16T15:11:18;99482.20;;;18.50
71081;BMP180;58740;50.672;18.690;2022-10-16T15:13:46;99483.60;;;18.50
71081;BMP180;58740;50.672;18.690;2022-10-16T15:16:15;99485.00;;;18.50
71081;BMP180;58740;50.672;18.690;2022-10-16T15:18:43;99488.20;;;18.40
71081;BMP180;58740;50.672;18.690;2022-10-16T15:21:32;99487.40;;;18.40
71081;BMP180;58740;50.672;18.690;2022-10-16T15:24:00;99493.40;;;18.40
71081;BMP180;58740;50.672;18.690;2022-10-16T15:26:29;99495.80;;;18.40
71081;BMP180;58740;50.672;18.690;2022-10-16T15:28:57;99500.00;;;18.40
71081;BMP180;58740;50.672;18.690;2022-10-16T15:31:25;99500.60;;;18.40
71081;BMP180;58740;50.672;18.690;2022-10-16T15:33:54;99500.60;;;18.38
71081;BMP180;58740;50.672;18.690;2022-10-16T15:36:28;99496.60;;;18.30
71081;BMP180;58740;50.672;18.690;2022-10-16T15:38:56;99500.60;;;18.30
71081;BMP180;58740;50.672;18.690;2022-10-16T15:41:24;99503.20;;;18.30
71081;BMP180;58740;50.672;18.690;2022-10-16T15:43:52;99508.20;;;18.20
71081;BMP180;58740;50.672;18.690;2022-10-16T15:46:23;99507.00;;;18.20